Time;durP1;ratioP1;P1;durP2;ratioP2;P2;SDS_P1;SDS_P2;PMS_P1;PMS_P2;Temp;Humidity;BMP_temperature;BMP_pressure;BME280_temperature;BME280_humidity;BME280_pressure;Samples;Min_cycle;Max_cycle;Signal;HPM_P1;HPM_P2
2023/08/12 00:00:26;;;;;;;3.57;2.00;;;;;;;;;;5044930;28;20045;-66
2023/08/12 00:02:51;;;;;;;2.60;2.00;;;;;;;;;;5045102;28;20839;-63
2023/08/12 00:05:16;;;;;;;3.10;1.87;;;;;;;;;;5044967;28;20718;-63
2023/08/12 00:07:42;;;;;;;2.90;1.90;;;;;;;;;;5027495;28;20419;-61
2023/08/12 00:10:08;;;;;;;3.13;2.20;;;;;;;;;;5027268;28;20279;-63
2023/08/12 00:12:36;;;;;;;3.70;2.05;;;;;;;;;;5045241;28;20047;-61
2023/08/12 00:15:02;;;;;;;3.58;2.13;;;;;;;;;;5047160;28;20037;-63
2023/08/12 00:17:27;;;;;;;2.75;2.20;;;;;;;;;;5027053;28;20048;-63
2023/08/12 00:19:53;;;;;;;2.57;1.90;;;;;;;;;;5045087;28;20044;-63
2023/08/12 00:22:18;;;;;;;2.50;2.10;;;;;;;;;;5045033;28;20437;-64
2023/08/12 00:24:44;;;;;;;2.70;1.97;;;;;;;;;;5044616;28;20377;-61
2023/08/12 00:27:09;;;;;;;3.45;1.92;;;;;;;;;;5044180;28;20843;-60
2023/08/12 00:29:35;;;;;;;2.60;2.10;;;;;;;;;;5044953;28;20044;-60
2023/08/12 00:32:00;;;;;;;3.58;2.15;;;;;;;;;;5026568;28;20202;-60
2023/08/12 00:34:25;;;;;;;2.72;1.70;;;;;;;;;;5026415;28;20153;-62
2023/08/12 00:36:51;;;;;;;3.97;1.97;;;;;;;;;;5044802;28;20031;-61
2023/08/12 00:39:16;;;;;;;3.17;1.80;;;;;;;;;;5045752;28;20029;-63
2023/08/12 00:41:41;;;;;;;2.23;1.80;;;;;;;;;;5044058;28;20946;-64
2023/08/12 00:44:06;;;;;;;3.53;2.23;;;;;;;;;;5044445;28;20546;-63
2023/08/12 00:46:32;;;;;;;3.60;1.60;;;;;;;;;;5044461;28;20529;-63
2023/08/12 00:48:57;;;;;;;2.40;2.03;;;;;;;;;;5043942;28;20287;-62
2023/08/12 00:51:22;;;;;;;2.10;1.90;;;;;;;;;;5044120;28;20471;-64
2023/08/12 00:53:47;;;;;;;2.80;1.70;;;;;;;;;;5044722;28;20427;-62
2023/08/12 00:56:13;;;;;;;3.03;1.90;;;;;;;;;;5025970;28;20288;-61
2023/08/12 00:58:38;;;;;;;2.97;1.97;;;;;;;;;;5064259;28;20294;-63
2023/08/12 01:01:03;;;;;;;3.15;2.08;;;;;;;;;;5036533;28;21017;-62
2023/08/12 01:03:29;;;;;;;3.97;2.05;;;;;;;;;;5014833;28;20499;-62
2023/08/12 01:05:54;;;;;;;2.33;1.77;;;;;;;;;;5017207;28;20041;-62
2023/08/12 01:08:20;;;;;;;2.53;1.80;;;;;;;;;;5033059;28;20626;-60
2023/08/12 01:10:47;;;;;;;2.80;1.93;;;;;;;;;;5038437;28;20288;-63
2023/08/12 01:13:15;;;;;;;3.38;2.03;;;;;;;;;;5043418;28;20560;-59
2023/08/12 01:15:40;;;;;;;2.40;1.60;;;;;;;;;;5049085;28;20036;-60
2023/08/12 01:18:05;;;;;;;3.33;2.00;;;;;;;;;;5044063;28;20021;-61
2023/08/12 01:20:30;;;;;;;2.78;1.77;;;;;;;;;;5025659;28;20263;-63
2023/08/12 01:23:07;;;;;;;3.10;2.00;;;;;;;;;;5043580;28;20017;-62
2023/08/12 01:25:33;;;;;;;2.50;1.90;;;;;;;;;;5026092;28;20286;-63
2023/08/12 01:27:58;;;;;;;2.40;1.80;;;;;;;;;;5044158;28;20037;-63
2023/08/12 01:30:23;;;;;;;2.30;1.80;;;;;;;;;;5043806;28;20029;-62
2023/08/12 01:33:05;;;;;;;2.50;1.80;;;;;;;;;;5025642;28;20272;-65
2023/08/12 01:35:33;;;;;;;3.45;1.90;;;;;;;;;;5026095;28;20310;-61
2023/08/12 01:37:58;;;;;;;3.35;2.10;;;;;;;;;;5036379;28;20584;-61
2023/08/12 01:40:23;;;;;;;2.10;1.88;;;;;;;;;;5057784;28;20045;-61
2023/08/12 01:42:48;;;;;;;2.90;1.80;;;;;;;;;;5047588;28;20048;-63
2023/08/12 01:45:14;;;;;;;3.20;1.87;;;;;;;;;;5029317;28;20572;-63
2023/08/12 01:47:39;;;;;;;2.80;1.70;;;;;;;;;;5046639;28;21279;-62
2023/08/12 01:50:06;;;;;;;2.72;1.90;;;;;;;;;;5042869;28;20033;-62
2023/08/12 01:52:31;;;;;;;3.60;2.22;;;;;;;;;;5046612;28;20516;-62
2023/08/12 01:54:56;;;;;;;3.00;1.90;;;;;;;;;;5047303;28;20029;-64
2023/08/12 01:57:22;;;;;;;4.50;1.70;;;;;;;;;;5047458;28;20800;-62
2023/08/12 01:59:47;;;;;;;2.57;1.77;;;;;;;;;;5046334;28;20075;-64
2023/08/12 02:02:12;;;;;;;2.20;1.67;;;;;;;;;;5048036;28;20287;-64
2023/08/12 02:04:38;;;;;;;2.70;1.97;;;;;;;;;;5047256;28;20029;-64
2023/08/12 02:07:04;;;;;;;5.25;1.80;;;;;;;;;;5047046;28;20087;-62
2023/08/12 02:09:30;;;;;;;3.17;1.58;;;;;;;;;;5047744;28;20033;-64
2023/08/12 02:11:55;;;;;;;3.88;1.90;;;;;;;;;;5048253;28;20041;-63
2023/08/12 02:14:20;;;;;;;2.87;1.90;;;;;;;;;;5047501;28;20037;-62
2023/08/12 02:16:46;;;;;;;2.73;1.97;;;;;;;;;;5047610;28;20282;-62
2023/08/12 02:19:11;;;;;;;3.35;1.90;;;;;;;;;;5047222;28;20043;-62
2023/08/12 02:21:36;;;;;;;2.83;2.13;;;;;;;;;;5046884;28;20021;-62
2023/08/12 02:24:02;;;;;;;4.10;2.07;;;;;;;;;;5035215;28;20098;-61
2023/08/12 02:26:27;;;;;;;3.35;1.95;;;;;;;;;;5047151;28;20622;-62
2023/08/12 02:28:52;;;;;;;2.77;1.70;;;;;;;;;;5047207;28;20151;-63
2023/08/12 02:31:17;;;;;;;3.10;1.67;;;;;;;;;;5046520;28;20289;-62
2023/08/12 02:33:43;;;;;;;2.87;1.87;;;;;;;;;;5046398;28;20804;-63
2023/08/12 02:36:08;;;;;;;3.72;1.77;;;;;;;;;;5046778;28;20426;-65
2023/08/12 02:38:33;;;;;;;3.90;1.93;;;;;;;;;;5047122;28;20033;-65
2023/08/12 02:40:58;;;;;;;2.50;1.83;;;;;;;;;;5046236;28;21083;-62
2023/08/12 02:43:24;;;;;;;3.23;1.87;;;;;;;;;;5028703;28;20771;-64
2023/08/12 02:45:49;;;;;;;2.67;1.90;;;;;;;;;;5047915;28;20364;-63
2023/08/12 02:48:14;;;;;;;2.27;1.70;;;;;;;;;;5046865;28;20299;-63
2023/08/12 02:50:39;;;;;;;3.10;1.70;;;;;;;;;;5045721;28;20329;-63
2023/08/12 02:53:05;;;;;;;3.40;1.90;;;;;;;;;;5046140;28;20804;-62
2023/08/12 02:55:31;;;;;;;3.35;2.00;;;;;;;;;;5046770;28;20291;-61
2023/08/12 02:57:57;;;;;;;2.75;1.83;;;;;;;;;;5046634;28;20025;-65
2023/08/12 03:00:22;;;;;;;3.80;1.88;;;;;;;;;;5045539;28;20052;-61
2023/08/12 03:02:47;;;;;;;3.50;2.00;;;;;;;;;;5046162;28;20447;-61
2023/08/12 03:05:12;;;;;;;3.97;1.97;;;;;;;;;;5047105;28;20529;-62
2023/08/12 03:07:38;;;;;;;2.57;2.00;;;;;;;;;;5046737;28;20518;-62
2023/08/12 03:10:03;;;;;;;2.90;1.97;;;;;;;;;;5046316;28;20458;-62
2023/08/12 03:12:28;;;;;;;2.50;1.77;;;;;;;;;;5045908;28;20502;-63
2023/08/12 03:14:53;;;;;;;2.67;1.90;;;;;;;;;;5028754;28;20108;-62
2023/08/12 03:17:19;;;;;;;2.40;1.80;;;;;;;;;;5046977;28;20060;-62
2023/08/12 03:19:44;;;;;;;3.33;1.70;;;;;;;;;;5046186;28;20280;-64
2023/08/12 03:22:09;;;;;;;3.17;2.00;;;;;;;;;;5049298;28;20855;-61
2023/08/12 03:24:34;;;;;;;2.97;1.80;;;;;;;;;;5047493;28;20807;-62
2023/08/12 03:26:59;;;;;;;3.33;2.00;;;;;;;;;;5045974;28;20753;-63
2023/08/12 03:29:25;;;;;;;2.47;1.97;;;;;;;;;;5045971;28;20497;-61
2023/08/12 03:31:50;;;;;;;2.80;1.70;;;;;;;;;;5045761;28;20491;-61
2023/08/12 03:34:15;;;;;;;3.77;2.30;;;;;;;;;;5045380;28;20691;-61
2023/08/12 03:36:41;;;;;;;3.43;1.87;;;;;;;;;;5045625;28;20049;-61
2023/08/12 03:39:06;;;;;;;2.97;1.67;;;;;;;;;;5046710;28;20037;-62
2023/08/12 03:41:31;;;;;;;2.70;1.92;;;;;;;;;;5045326;28;20021;-63
2023/08/12 03:43:56;;;;;;;3.42;1.98;;;;;;;;;;5045535;28;20037;-64
2023/08/12 03:46:21;;;;;;;3.50;1.97;;;;;;;;;;5027316;28;20028;-61
2023/08/12 03:48:47;;;;;;;3.50;1.63;;;;;;;;;;5046309;28;20075;-60
2023/08/12 03:51:12;;;;;;;2.60;1.70;;;;;;;;;;5054445;28;20886;-62
2023/08/12 03:53:37;;;;;;;3.17;1.80;;;;;;;;;;5045404;28;20652;-62
2023/08/12 03:56:03;;;;;;;3.70;1.95;;;;;;;;;;5031457;28;20388;-62
2023/08/12 03:58:29;;;;;;;3.00;1.75;;;;;;;;;;5045394;28;20044;-62
2023/08/12 04:00:54;;;;;;;2.80;1.60;;;;;;;;;;5042974;28;20029;-62
2023/08/12 04:03:19;;;;;;;2.10;1.83;;;;;;;;;;5044738;28;20348;-61
2023/08/12 04:05:49;;;;;;;3.60;2.30;;;;;;;;;;5032286;28;20041;-62
2023/08/12 04:08:14;;;;;;;3.97;2.05;;;;;;;;;;5044787;28;20394;-61
2023/08/12 04:10:39;;;;;;;2.10;1.67;;;;;;;;;;5045236;28;20132;-62
2023/08/12 04:13:04;;;;;;;3.55;1.90;;;;;;;;;;5045628;28;20112;-61
2023/08/12 04:15:31;;;;;;;2.67;1.90;;;;;;;;;;5049939;28;20579;-62
2023/08/12 04:17:56;;;;;;;4.40;1.93;;;;;;;;;;5044796;28;20033;-62
2023/08/12 04:20:22;;;;;;;2.37;1.83;;;;;;;;;;5044886;28;20804;-63
2023/08/12 04:22:48;;;;;;;3.60;2.20;;;;;;;;;;5027530;28;20646;-63
2023/08/12 04:25:13;;;;;;;4.32;2.13;;;;;;;;;;5044655;28;20072;-62
2023/08/12 04:27:39;;;;;;;3.83;2.57;;;;;;;;;;5044955;28;20081;-63
2023/08/12 04:30:04;;;;;;;4.30;1.93;;;;;;;;;;5045808;28;20310;-62
2023/08/12 04:32:29;;;;;;;3.88;2.15;;;;;;;;;;5041530;28;20384;-63
2023/08/12 04:34:55;;;;;;;3.83;2.13;;;;;;;;;;4998573;28;20033;-61
2023/08/12 04:37:20;;;;;;;4.00;1.90;;;;;;;;;;5031367;28;20303;-61
2023/08/12 04:39:45;;;;;;;3.00;1.85;;;;;;;;;;5014967;28;20036;-60
2023/08/12 04:42:11;;;;;;;4.70;2.33;;;;;;;;;;5043427;28;21143;-62
2023/08/12 04:44:36;;;;;;;3.33;2.00;;;;;;;;;;5025558;28;20052;-62
2023/08/12 04:47:01;;;;;;;3.27;2.07;;;;;;;;;;5043274;28;20287;-62
2023/08/12 04:49:27;;;;;;;3.10;1.80;;;;;;;;;;5061128;28;20031;-62
2023/08/12 04:51:55;;;;;;;2.60;2.13;;;;;;;;;;5060246;28;20679;-62
2023/08/12 04:54:20;;;;;;;3.10;2.15;;;;;;;;;;5060518;28;20455;-60
2023/08/12 04:56:45;;;;;;;4.30;1.97;;;;;;;;;;5052234;28;20534;-61
2023/08/12 04:59:11;;;;;;;3.87;2.30;;;;;;;;;;5043694;28;20942;-62
2023/08/12 05:01:36;;;;;;;3.88;2.00;;;;;;;;;;5029728;28;20407;-62
2023/08/12 05:04:02;;;;;;;4.13;2.15;;;;;;;;;;5042555;28;20060;-62
2023/08/12 05:06:27;;;;;;;2.92;2.10;;;;;;;;;;5044247;28;20025;-61
2023/08/12 05:08:53;;;;;;;4.00;1.93;;;;;;;;;;5043505;28;20110;-62
2023/08/12 05:11:18;;;;;;;6.23;2.27;;;;;;;;;;5042820;28;21494;-61
2023/08/12 05:13:43;;;;;;;4.23;2.20;;;;;;;;;;5025898;28;20033;-61
2023/08/12 05:16:08;;;;;;;2.73;2.10;;;;;;;;;;5046426;28;20052;-62
2023/08/12 05:18:33;;;;;;;4.83;2.00;;;;;;;;;;5044189;28;20033;-61
2023/08/12 05:20:59;;;;;;;2.30;1.90;;;;;;;;;;5046281;28;20369;-63
2023/08/12 05:23:24;;;;;;;2.45;1.90;;;;;;;;;;5034643;28;20062;-62
2023/08/12 05:25:49;;;;;;;2.90;1.70;;;;;;;;;;5045831;28;20576;-62
2023/08/12 05:28:14;;;;;;;3.00;2.10;;;;;;;;;;5044292;28;20306;-59
2023/08/12 05:30:40;;;;;;;5.72;2.42;;;;;;;;;;5051669;28;20279;-60
2023/08/12 05:33:06;;;;;;;6.63;2.47;;;;;;;;;;5044958;28;20561;-60
2023/08/12 05:35:34;;;;;;;3.92;2.45;;;;;;;;;;5044956;28;20025;-61
2023/08/12 05:38:00;;;;;;;4.47;2.70;;;;;;;;;;5032067;28;20794;-62
2023/08/12 05:40:25;;;;;;;3.67;2.45;;;;;;;;;;5024865;28;20049;-64
2023/08/12 05:42:50;;;;;;;3.83;2.33;;;;;;;;;;5043406;28;20086;-62
2023/08/12 05:45:16;;;;;;;3.03;2.33;;;;;;;;;;5043468;28;20299;-62
2023/08/12 05:47:41;;;;;;;3.30;2.40;;;;;;;;;;5043569;28;20299;-62
2023/08/12 05:50:06;;;;;;;6.00;2.67;;;;;;;;;;5027842;28;20151;-65
2023/08/12 05:52:32;;;;;;;4.13;2.38;;;;;;;;;;5038616;28;20280;-62
2023/08/12 05:54:57;;;;;;;3.05;2.22;;;;;;;;;;5009202;28;20036;-64
2023/08/12 05:57:22;;;;;;;4.40;2.50;;;;;;;;;;5049360;28;20047;-62
2023/08/12 05:59:48;;;;;;;4.60;2.60;;;;;;;;;;5043261;28;20033;-62
2023/08/12 06:02:13;;;;;;;5.97;2.77;;;;;;;;;;5043671;28;20370;-62
2023/08/12 06:04:38;;;;;;;4.10;2.42;;;;;;;;;;5043787;28;20279;-64
2023/08/12 06:07:03;;;;;;;4.27;2.83;;;;;;;;;;5050390;28;20044;-60
2023/08/12 06:09:29;;;;;;;3.95;2.65;;;;;;;;;;5053065;28;20275;-61
2023/08/12 06:11:54;;;;;;;4.57;2.23;;;;;;;;;;5050975;28;20138;-61
2023/08/12 06:14:19;;;;;;;4.03;2.50;;;;;;;;;;5054743;28;20333;-62
2023/08/12 06:16:44;;;;;;;4.50;2.77;;;;;;;;;;5056067;28;20291;-61
2023/08/12 06:19:10;;;;;;;6.60;2.63;;;;;;;;;;5058118;28;20297;-63
2023/08/12 06:21:35;;;;;;;3.53;2.40;;;;;;;;;;5056635;28;20509;-62
2023/08/12 06:24:00;;;;;;;4.23;2.40;;;;;;;;;;5050985;28;20580;-60
2023/08/12 06:26:25;;;;;;;6.30;2.70;;;;;;;;;;5056579;28;20474;-62
2023/08/12 06:28:51;;;;;;;4.30;2.70;;;;;;;;;;5053305;28;20847;-63
2023/08/12 06:31:16;;;;;;;4.10;2.67;;;;;;;;;;5067017;28;20056;-61
2023/08/12 06:33:41;;;;;;;3.43;2.50;;;;;;;;;;5037087;28;20077;-61
2023/08/12 06:36:06;;;;;;;6.13;2.63;;;;;;;;;;5046296;28;20907;-62
2023/08/12 06:38:32;;;;;;;4.47;2.50;;;;;;;;;;5045956;28;20455;-62
2023/08/12 06:40:57;;;;;;;5.17;2.40;;;;;;;;;;5039350;28;20418;-61
2023/08/12 06:43:22;;;;;;;3.50;2.30;;;;;;;;;;5050318;28;20283;-62
2023/08/12 06:45:47;;;;;;;6.17;2.47;;;;;;;;;;5050814;28;20349;-60
2023/08/12 06:48:12;;;;;;;6.93;2.50;;;;;;;;;;5048340;28;20303;-60
2023/08/12 06:50:38;;;;;;;5.68;2.50;;;;;;;;;;5046692;28;20039;-62
2023/08/12 06:53:03;;;;;;;3.17;2.07;;;;;;;;;;5046067;28;20037;-62
2023/08/12 06:55:28;;;;;;;3.75;2.40;;;;;;;;;;5045788;28;20094;-63
2023/08/12 06:57:54;;;;;;;4.80;2.58;;;;;;;;;;5048944;28;20061;-62
2023/08/12 07:00:19;;;;;;;3.53;2.30;;;;;;;;;;5056911;28;20067;-63
2023/08/12 07:02:44;;;;;;;2.80;2.00;;;;;;;;;;5048981;28;20332;-62
2023/08/12 07:05:09;;;;;;;5.43;2.50;;;;;;;;;;5052642;28;20064;-63
2023/08/12 07:07:35;;;;;;;5.30;2.20;;;;;;;;;;5029639;28;20323;-62
2023/08/12 07:10:00;;;;;;;3.78;2.17;;;;;;;;;;5046012;28;20351;-62
2023/08/12 07:12:25;;;;;;;5.88;2.60;;;;;;;;;;5044047;28;20119;-60
2023/08/12 07:14:50;;;;;;;2.90;2.13;;;;;;;;;;5041906;28;20067;-58
2023/08/12 07:17:15;;;;;;;4.77;2.47;;;;;;;;;;5043241;28;20279;-60
2023/08/12 07:19:41;;;;;;;4.67;2.27;;;;;;;;;;5043570;28;20276;-60
2023/08/12 07:22:06;;;;;;;5.07;2.23;;;;;;;;;;5011873;28;20386;-63
2023/08/12 07:24:31;;;;;;;2.80;2.10;;;;;;;;;;5045302;28;20272;-63
2023/08/12 07:26:56;;;;;;;2.70;2.10;;;;;;;;;;5025061;28;20287;-62
2023/08/12 07:29:22;;;;;;;4.13;2.37;;;;;;;;;;5044481;28;20043;-62
2023/08/12 07:31:47;;;;;;;3.63;2.63;;;;;;;;;;5043325;28;20699;-61
2023/08/12 07:34:13;;;;;;;3.83;2.10;;;;;;;;;;5025143;28;20528;-62
2023/08/12 07:36:38;;;;;;;5.85;2.40;;;;;;;;;;5025574;28;20525;-62
2023/08/12 07:39:04;;;;;;;4.63;2.50;;;;;;;;;;5051705;28;20413;-60
2023/08/12 07:41:29;;;;;;;4.18;2.30;;;;;;;;;;5045266;28;20043;-62
2023/08/12 07:43:54;;;;;;;3.17;2.17;;;;;;;;;;5027528;28;20045;-63
2023/08/12 07:46:20;;;;;;;2.80;2.08;;;;;;;;;;5045267;28;20273;-62
2023/08/12 07:48:45;;;;;;;4.03;2.00;;;;;;;;;;5045575;28;20075;-61
2023/08/12 07:51:11;;;;;;;3.87;2.33;;;;;;;;;;5057265;28;20508;-60
2023/08/12 07:53:36;;;;;;;4.50;2.40;;;;;;;;;;5061326;28;20523;-61
2023/08/12 07:56:01;;;;;;;3.27;2.30;;;;;;;;;;5049296;28;20720;-62
2023/08/12 07:58:26;;;;;;;3.43;2.67;;;;;;;;;;5043950;28;20280;-62
2023/08/12 08:00:53;;;;;;;3.43;2.40;;;;;;;;;;5044712;28;20037;-62
2023/08/12 08:03:18;;;;;;;3.00;2.17;;;;;;;;;;5045083;28;20033;-62
2023/08/12 08:05:45;;;;;;;3.43;2.40;;;;;;;;;;5027015;28;20090;-61
2023/08/12 08:08:10;;;;;;;7.55;2.75;;;;;;;;;;5045341;28;20135;-61
2023/08/12 08:10:36;;;;;;;4.47;2.27;;;;;;;;;;5045312;28;20123;-61
2023/08/12 08:13:01;;;;;;;3.97;2.05;;;;;;;;;;5028181;28;20284;-60
2023/08/12 08:15:26;;;;;;;3.20;2.20;;;;;;;;;;5026847;28;20044;-63
2023/08/12 08:17:51;;;;;;;4.07;2.07;;;;;;;;;;5045036;28;20045;-61
2023/08/12 08:20:16;;;;;;;4.20;2.30;;;;;;;;;;5047664;28;20044;-59
2023/08/12 08:22:42;;;;;;;3.17;1.90;;;;;;;;;;5044944;28;20295;-62
2023/08/12 08:25:07;;;;;;;3.07;2.30;;;;;;;;;;5045104;28;20041;-62
2023/08/12 08:27:33;;;;;;;3.58;2.38;;;;;;;;;;5044691;28;20045;-61
2023/08/12 08:29:58;;;;;;;4.88;2.20;;;;;;;;;;5030483;28;20081;-62
2023/08/12 08:32:23;;;;;;;4.80;2.45;;;;;;;;;;5046161;28;20431;-60
2023/08/12 08:34:48;;;;;;;4.23;2.40;;;;;;;;;;5035373;28;20037;-61
2023/08/12 08:37:14;;;;;;;4.63;2.58;;;;;;;;;;5044477;28;20036;-62
2023/08/12 08:39:39;;;;;;;3.17;1.98;;;;;;;;;;5044353;28;20044;-60
2023/08/12 08:42:07;;;;;;;3.27;2.17;;;;;;;;;;5044482;28;20075;-61
2023/08/12 08:44:33;;;;;;;3.45;2.10;;;;;;;;;;5026484;28;20289;-64
2023/08/12 08:46:58;;;;;;;3.13;2.22;;;;;;;;;;5047650;28;20036;-61
2023/08/12 08:49:23;;;;;;;4.77;2.50;;;;;;;;;;5038619;28;20048;-61
2023/08/12 08:51:48;;;;;;;3.17;2.20;;;;;;;;;;5044313;28;20440;-62
2023/08/12 08:54:14;;;;;;;5.57;2.05;;;;;;;;;;5026363;28;20272;-61
2023/08/12 08:56:39;;;;;;;5.37;2.00;;;;;;;;;;5044011;28;20044;-60
2023/08/12 08:59:04;;;;;;;3.53;1.95;;;;;;;;;;5044114;28;20283;-62
2023/08/12 09:01:29;;;;;;;2.90;1.70;;;;;;;;;;5026375;28;20175;-63
2023/08/12 09:03:55;;;;;;;3.83;2.00;;;;;;;;;;5025987;28;20793;-61
2023/08/12 09:06:20;;;;;;;3.63;1.80;;;;;;;;;;5027235;28;20298;-62
2023/08/12 09:08:46;;;;;;;2.63;1.88;;;;;;;;;;5044242;28;20137;-60
2023/08/12 09:11:11;;;;;;;3.03;2.20;;;;;;;;;;5044237;28;20029;-60
2023/08/12 09:13:36;;;;;;;2.85;2.05;;;;;;;;;;5026218;28;20835;-62
2023/08/12 09:16:01;;;;;;;3.20;1.87;;;;;;;;;;5042028;28;20033;-62
2023/08/12 09:18:26;;;;;;;3.37;2.27;;;;;;;;;;5043846;28;20037;-62
2023/08/12 09:20:52;;;;;;;2.97;2.20;;;;;;;;;;5025538;28;20283;-62
2023/08/12 09:23:18;;;;;;;2.90;2.30;;;;;;;;;;5044021;28;20314;-60
2023/08/12 09:25:46;;;;;;;2.33;1.80;;;;;;;;;;5043386;28;20453;-62
2023/08/12 09:28:11;;;;;;;3.13;1.83;;;;;;;;;;5043336;28;20049;-63
2023/08/12 09:30:37;;;;;;;4.40;2.40;;;;;;;;;;5029026;28;20365;-62
2023/08/12 09:33:07;;;;;;;2.80;2.00;;;;;;;;;;5010202;28;20560;-60
2023/08/12 09:35:32;;;;;;;;;;;;;;;;;;5015531;28;20045;-65
2023/08/12 09:37:57;;;;;;;3.90;2.20;;;;;;;;;;5028700;28;19991;-62
2023/08/12 09:40:22;;;;;;;3.67;2.42;;;;;;;;;;5028383;28;20135;-62
2023/08/12 09:42:48;;;;;;;3.47;2.13;;;;;;;;;;5011624;28;20041;-61
2023/08/12 09:45:13;;;;;;;4.90;2.33;;;;;;;;;;5028369;28;20299;-62
2023/08/12 09:47:41;;;;;;;3.73;2.20;;;;;;;;;;5026733;28;20312;-59
2023/08/12 09:50:06;;;;;;;3.25;2.00;;;;;;;;;;5028219;28;20322;-62
2023/08/12 09:52:32;;;;;;;2.88;1.85;;;;;;;;;;5028887;28;20507;-64
2023/08/12 09:54:57;;;;;;;2.55;1.85;;;;;;;;;;5029718;28;20032;-64
2023/08/12 09:57:23;;;;;;;2.40;1.92;;;;;;;;;;5028742;28;20029;-64
2023/08/12 09:59:48;;;;;;;4.28;2.13;;;;;;;;;;5014329;28;20125;-61
2023/08/12 10:02:18;;;;;;;2.33;1.88;;;;;;;;;;5015704;28;20751;-62
2023/08/12 10:04:44;;;;;;;3.13;2.10;;;;;;;;;;5031977;28;20029;-63
2023/08/12 10:07:10;;;;;;;2.72;2.22;;;;;;;;;;5030811;28;20504;-63
2023/08/12 10:09:35;;;;;;;2.85;1.85;;;;;;;;;;5031826;28;20533;-62
2023/08/12 10:12:01;;;;;;;3.45;2.08;;;;;;;;;;5031612;28;20044;-62
2023/08/12 10:14:26;;;;;;;3.50;2.30;;;;;;;;;;5030942;28;20037;-62
2023/08/12 10:16:51;;;;;;;4.78;1.98;;;;;;;;;;5015260;28;20835;-63
2023/08/12 10:19:17;;;;;;;4.40;2.10;;;;;;;;;;5014810;28;20044;-61
2023/08/12 10:21:43;;;;;;;3.03;2.22;;;;;;;;;;5030939;28;20539;-62
2023/08/12 10:24:08;;;;;;;2.95;2.00;;;;;;;;;;5032170;28;20045;-66
2023/08/12 10:26:34;;;;;;;2.38;1.90;;;;;;;;;;4998022;28;20426;-60
2023/08/12 10:28:59;;;;;;;2.80;1.90;;;;;;;;;;5030354;28;20594;-60
2023/08/12 10:31:25;;;;;;;3.75;2.22;;;;;;;;;;5004469;28;20339;-61
2023/08/12 10:33:51;;;;;;;2.65;1.90;;;;;;;;;;5014460;28;20044;-60
2023/08/12 10:36:19;;;;;;;2.80;1.77;;;;;;;;;;5015598;28;20037;-62
2023/08/12 10:38:44;;;;;;;5.15;1.80;;;;;;;;;;5030539;28;20068;-64
2023/08/12 10:41:22;;;;;;;4.10;2.50;;;;;;;;;;5020606;28;20140;-62
2023/08/12 10:44:01;;;;;;;3.10;2.20;;;;;;;;;;5028581;28;20025;-63
2023/08/12 10:46:35;;;;;;;3.25;1.85;;;;;;;;;;5035136;28;20049;-61
2023/08/12 10:49:03;;;;;;;5.15;2.05;;;;;;;;;;5035412;28;20049;-62
2023/08/12 10:52:04;;;;;;;2.47;1.67;;;;;;;;;;5032287;28;20040;-62
2023/08/12 10:54:30;;;;;;;2.72;1.95;;;;;;;;;;4972117;28;20575;-63
2023/08/12 10:57:02;;;;;;;3.30;1.60;;;;;;;;;;5008936;28;20064;-63
2023/08/12 10:59:46;;;;;;;3.25;1.90;;;;;;;;;;5035068;28;20061;-63
2023/08/12 11:02:18;;;;;;;2.60;1.60;;;;;;;;;;5033647;28;20048;-65
2023/08/12 11:04:43;;;;;;;2.90;1.90;;;;;;;;;;5038392;28;20503;-63
2023/08/12 11:07:18;;;;;;;3.85;2.30;;;;;;;;;;5035484;28;20102;-62
2023/08/12 11:09:43;;;;;;;3.65;1.98;;;;;;;;;;5032177;28;20044;-63
2023/08/12 11:12:09;;;;;;;3.33;1.63;;;;;;;;;;5032093;28;20051;-62
2023/08/12 11:14:46;;;;;;;2.38;1.70;;;;;;;;;;5033057;28;20037;-63
2023/08/12 11:17:13;;;;;;;2.83;2.03;;;;;;;;;;5014979;28;20084;-63
2023/08/12 11:19:38;;;;;;;2.95;1.60;;;;;;;;;;5035093;28;20573;-61
2023/08/12 11:22:04;;;;;;;3.70;1.80;;;;;;;;;;5033056;28;20055;-62
2023/08/12 11:24:31;;;;;;;2.25;1.58;;;;;;;;;;5016667;28;20037;-63
2023/08/12 11:26:57;;;;;;;2.25;1.48;;;;;;;;;;5014430;28;20616;-61
2023/08/12 11:29:22;;;;;;;3.30;1.83;;;;;;;;;;5033921;28;20053;-61
2023/08/12 11:31:47;;;;;;;1.90;1.60;;;;;;;;;;5034564;28;20283;-62
2023/08/12 11:34:12;;;;;;;2.07;1.60;;;;;;;;;;5032488;28;20069;-62
2023/08/12 11:36:38;;;;;;;3.10;1.60;;;;;;;;;;5033043;28;20067;-60
2023/08/12 11:39:03;;;;;;;2.30;1.63;;;;;;;;;;5033741;28;20284;-64
2023/08/12 11:41:28;;;;;;;3.35;1.88;;;;;;;;;;5033976;28;20083;-62
2023/08/12 11:43:54;;;;;;;2.27;1.40;;;;;;;;;;5032184;28;20095;-63
2023/08/12 11:46:19;;;;;;;3.03;1.77;;;;;;;;;;5029358;28;20033;-64
2023/08/12 11:48:44;;;;;;;2.13;1.50;;;;;;;;;;5029890;28;20044;-61
2023/08/12 11:51:09;;;;;;;3.77;1.57;;;;;;;;;;5029489;28;20045;-63
2023/08/12 11:53:34;;;;;;;1.77;1.23;;;;;;;;;;5030306;28;20295;-61
2023/08/12 11:56:00;;;;;;;1.93;1.40;;;;;;;;;;5028913;28;20033;-63
2023/08/12 11:58:25;;;;;;;2.03;1.45;;;;;;;;;;5012977;28;20295;-62
2023/08/12 12:00:50;;;;;;;2.70;1.40;;;;;;;;;;5013739;28;20063;-61
2023/08/12 12:03:16;;;;;;;2.70;1.58;;;;;;;;;;5029365;28;20296;-62
2023/08/12 12:05:41;;;;;;;1.95;1.40;;;;;;;;;;5028679;28;20171;-61
2023/08/12 12:08:08;;;;;;;2.57;1.50;;;;;;;;;;5028955;28;20142;-61
2023/08/12 12:10:35;;;;;;;2.10;1.70;;;;;;;;;;5028472;28;20300;-62
2023/08/12 12:13:00;;;;;;;2.13;1.40;;;;;;;;;;5029364;28;20017;-61
2023/08/12 12:15:25;;;;;;;2.25;1.35;;;;;;;;;;5028763;28;20069;-61
2023/08/12 12:17:51;;;;;;;2.77;1.30;;;;;;;;;;5028712;28;20074;-62
2023/08/12 12:20:16;;;;;;;2.60;1.53;;;;;;;;;;5028544;28;20131;-59
2023/08/12 12:22:43;;;;;;;2.35;1.20;;;;;;;;;;5027983;28;20680;-61
2023/08/12 12:25:09;;;;;;;2.00;1.40;;;;;;;;;;5029763;28;20051;-63
2023/08/12 12:27:34;;;;;;;3.05;1.40;;;;;;;;;;5028503;28;20119;-62
2023/08/12 12:30:00;;;;;;;1.70;1.13;;;;;;;;;;5028723;28;20028;-62
2023/08/12 12:32:25;;;;;;;2.45;1.35;;;;;;;;;;5032270;28;20033;-66
2023/08/12 12:34:52;;;;;;;3.03;1.40;;;;;;;;;;5036720;28;20274;-61
2023/08/12 12:37:17;;;;;;;2.50;1.40;;;;;;;;;;5038956;28;20044;-62
2023/08/12 12:39:42;;;;;;;2.60;1.50;;;;;;;;;;5034606;28;20041;-63
2023/08/12 12:42:08;;;;;;;3.50;1.60;;;;;;;;;;5031571;28;20068;-64
2023/08/12 12:44:33;;;;;;;2.40;1.42;;;;;;;;;;5033011;28;20021;-66
2023/08/12 12:46:58;;;;;;;2.53;1.50;;;;;;;;;;5033166;28;20142;-63
2023/08/12 12:49:23;;;;;;;2.87;1.77;;;;;;;;;;5034502;28;20044;-63
2023/08/12 12:51:49;;;;;;;3.50;1.48;;;;;;;;;;5032228;28;20029;-63
2023/08/12 12:54:14;;;;;;;2.47;1.40;;;;;;;;;;5011407;28;20048;-63
2023/08/12 12:56:39;;;;;;;2.13;1.30;;;;;;;;;;5033828;28;20621;-62
2023/08/12 12:59:05;;;;;;;2.30;1.50;;;;;;;;;;5030470;28;20275;-61
2023/08/12 13:01:30;;;;;;;2.05;1.40;;;;;;;;;;5033042;28;20025;-64
2023/08/12 13:03:55;;;;;;;2.60;1.45;;;;;;;;;;5032859;28;20052;-63
2023/08/12 13:06:21;;;;;;;2.42;1.50;;;;;;;;;;5031727;28;20021;-60
2023/08/12 13:08:46;;;;;;;3.00;1.53;;;;;;;;;;5034071;28;20037;-62
2023/08/12 13:11:11;;;;;;;3.53;1.60;;;;;;;;;;5034888;28;20307;-65
2023/08/12 13:13:36;;;;;;;3.27;1.63;;;;;;;;;;5030998;28;20048;-61
2023/08/12 13:16:02;;;;;;;3.57;1.87;;;;;;;;;;5030492;28;20275;-62
2023/08/12 13:18:27;;;;;;;2.80;1.65;;;;;;;;;;5035233;28;20313;-64
2023/08/12 13:20:52;;;;;;;2.17;1.67;;;;;;;;;;5018258;28;20043;-63
2023/08/12 13:23:18;;;;;;;2.00;1.60;;;;;;;;;;5032318;28;20071;-66
2023/08/12 13:25:43;;;;;;;2.20;1.37;;;;;;;;;;5030504;28;20185;-65
2023/08/12 13:28:08;;;;;;;1.93;1.47;;;;;;;;;;5034431;28;20029;-66
2023/08/12 13:30:33;;;;;;;2.08;1.45;;;;;;;;;;5031258;28;20277;-64
2023/08/12 13:32:59;;;;;;;3.50;1.90;;;;;;;;;;5032042;28;20021;-64
2023/08/12 13:35:24;;;;;;;2.70;1.37;;;;;;;;;;5030808;28;20269;-63
2023/08/12 13:37:49;;;;;;;2.30;1.50;;;;;;;;;;5018158;28;20344;-64
2023/08/12 13:40:15;;;;;;;3.00;1.60;;;;;;;;;;5029209;28;20609;-66
2023/08/12 13:42:40;;;;;;;2.93;1.50;;;;;;;;;;5014229;28;20025;-64
2023/08/12 13:45:06;;;;;;;1.98;1.13;;;;;;;;;;5029895;28;20271;-63
2023/08/12 13:47:33;;;;;;;2.20;1.50;;;;;;;;;;5029510;28;20057;-60
2023/08/12 13:49:58;;;;;;;2.35;1.50;;;;;;;;;;5010404;28;20041;-62
2023/08/12 13:52:23;;;;;;;3.27;1.50;;;;;;;;;;5029155;28;20039;-65
2023/08/12 13:54:49;;;;;;;2.07;1.40;;;;;;;;;;5029403;28;20040;-64
2023/08/12 13:57:14;;;;;;;2.20;1.47;;;;;;;;;;5027793;28;20866;-67
2023/08/12 13:59:43;;;;;;;1.80;1.20;;;;;;;;;;5028741;28;20272;-64
2023/08/12 14:02:08;;;;;;;1.80;1.47;;;;;;;;;;5028821;28;20439;-67
2023/08/12 14:04:34;;;;;;;3.10;1.43;;;;;;;;;;5028377;28;20041;-66
2023/08/12 14:06:59;;;;;;;1.95;1.40;;;;;;;;;;5028192;28;20506;-65
2023/08/12 14:09:24;;;;;;;3.23;1.33;;;;;;;;;;5027563;28;20041;-64
2023/08/12 14:11:49;;;;;;;1.97;1.50;;;;;;;;;;5027899;28;20627;-63
2023/08/12 14:14:14;;;;;;;1.97;1.23;;;;;;;;;;5029045;28;20442;-62
2023/08/12 14:16:40;;;;;;;2.50;1.23;;;;;;;;;;5028164;28;20434;-66
2023/08/12 14:19:05;;;;;;;2.87;1.40;;;;;;;;;;5029269;28;20032;-62
2023/08/12 14:21:30;;;;;;;2.10;1.37;;;;;;;;;;5029435;28;20041;-63
2023/08/12 14:23:56;;;;;;;6.43;1.40;;;;;;;;;;5028530;28;20284;-65
2023/08/12 14:26:21;;;;;;;2.08;1.40;;;;;;;;;;5030357;28;20036;-62
2023/08/12 14:28:46;;;;;;;2.47;1.40;;;;;;;;;;5011782;28;20045;-64
2023/08/12 14:31:11;;;;;;;2.90;1.73;;;;;;;;;;5028184;28;20824;-63
2023/08/12 14:33:37;;;;;;;3.23;1.43;;;;;;;;;;5028497;28;20404;-61